Unstoppable — SH827 — position and weather

sailwx.info

Track history (hours):
 
Tides and Currents Weather Stations Pressure Air Temp Water Temp Dewpoint Dewpoint Depression Visibility Wind Speed Wind Dir Waves Ship Positions

Unstoppable

Last reported at 2018-Jan-11 07:44 UTC. Time now 2018-Jan-18 06:07 UTC.
Position S 27°13' E 153°06'.

Length 11 m.

Type: Sailing vessel. MMSI: 503041260.

Date/timePositionNaut miles runAvg speedWind from/ knotsBaromVisibWave heightAir tempDewpointWater temp
2018-Jan-11 07:44S 27°13' E 153°06'0 0.0
2018-Jan-11 07:29S 27°13' E 153°06'0 0.0
2018-Jan-11 06:59S 27°13' E 153°06'0 0.0
2018-Jan-11 06:29S 27°13' E 153°06'0 0.0
2018-Jan-11 05:59S 27°13' E 153°06'0 0.0
2018-Jan-11 05:29S 27°13' E 153°06'0 0.0
2018-Jan-11 04:59S 27°13' E 153°06'0 0.0
2018-Jan-11 04:29S 27°13' E 153°06'0 0.0
2018-Jan-11 03:59S 27°13' E 153°06'0 0.0
2018-Jan-11 03:29S 27°13' E 153°06'0 0.0
2018-Jan-11 02:59S 27°13' E 153°06'0 0.0
2018-Jan-11 02:29S 27°13' E 153°06'0 0.0
2018-Jan-11 01:59S 27°13' E 153°06'0 0.0
2018-Jan-11 01:29S 27°13' E 153°06'0 0.2
2018-Jan-11 00:59S 27°13' E 153°06'0 0.3
2018-Jan-11 00:29S 27°13' E 153°06'0 0.0
2018-Jan-10 23:59S 27°13' E 153°06'0 0.0
2018-Jan-10 23:26S 27°13' E 153°06'0 0.0
2018-Jan-10 22:59S 27°13' E 153°06'0 0.0
2018-Jan-10 22:29S 27°13' E 153°06'0 0.0
2018-Jan-10 21:56S 27°13' E 153°06'  
2018-Jan-07 07:20S 27°13' E 153°06'0 0.0
2018-Jan-07 06:59S 27°13' E 153°06'2 4.1
2018-Jan-07 06:30S 27°11' E 153°06'2 4.5
2018-Jan-07 06:00S 27°10' E 153°08'2 4.0
2018-Jan-07 05:30S 27°08' E 153°09'2 4.0
2018-Jan-07 05:01S 27°06' E 153°09'1 2.3
2018-Jan-07 04:29S 27°05' E 153°09'0 0.0
2018-Jan-07 03:56S 27°05' E 153°09'0 0.0
2018-Jan-07 03:29S 27°05' E 153°09'0 0.0
2018-Jan-07 02:59S 27°05' E 153°09'1 2.6
2018-Jan-07 02:30S 27°06' E 153°10'3 5.5
2018-Jan-07 02:00S 27°05' E 153°13'1 1.9
2018-Jan-07 01:30S 27°06' E 153°12'4 4.3
2018-Jan-07 00:30S 27°08' E 153°08'2 4.9
2018-Jan-07 00:00S 27°10' E 153°07'3 5.4
2018-Jan-06 23:30S 27°12' E 153°06'0 0.8
2018-Jan-06 22:59S 27°13' E 153°06'  
Track history (hours):
 
Tides and Currents Weather Stations Pressure Air Temp Water Temp Dewpoint Dewpoint Depression Visibility Wind Speed Wind Dir Waves Ship Positions

Unstoppable

Last reported at 2018-Jan-11 07:44 UTC. Time now 2018-Jan-18 06:07 UTC.
Position S 27°13' E 153°06'.

Length 11 m.

Type: Sailing vessel. MMSI: 503041260.

Date/timePositionNaut miles runAvg speedWind from/ knotsBaromVisibWave heightAir tempDewpointWater temp
2018-Jan-11 07:44S 27°13' E 153°06'0 0.0
2018-Jan-11 07:29S 27°13' E 153°06'0 0.0
2018-Jan-11 06:59S 27°13' E 153°06'0 0.0
2018-Jan-11 06:29S 27°13' E 153°06'0 0.0
2018-Jan-11 05:59S 27°13' E 153°06'0 0.0
2018-Jan-11 05:29S 27°13' E 153°06'0 0.0
2018-Jan-11 04:59S 27°13' E 153°06'0 0.0
2018-Jan-11 04:29S 27°13' E 153°06'0 0.0
2018-Jan-11 03:59S 27°13' E 153°06'0 0.0
2018-Jan-11 03:29S 27°13' E 153°06'0 0.0
2018-Jan-11 02:59S 27°13' E 153°06'0 0.0
2018-Jan-11 02:29S 27°13' E 153°06'0 0.0
2018-Jan-11 01:59S 27°13' E 153°06'0 0.0
2018-Jan-11 01:29S 27°13' E 153°06'0 0.2
2018-Jan-11 00:59S 27°13' E 153°06'0 0.3
2018-Jan-11 00:29S 27°13' E 153°06'0 0.0
2018-Jan-10 23:59S 27°13' E 153°06'0 0.0
2018-Jan-10 23:26S 27°13' E 153°06'0 0.0
2018-Jan-10 22:59S 27°13' E 153°06'0 0.0
2018-Jan-10 22:29S 27°13' E 153°06'0 0.0
2018-Jan-10 21:56S 27°13' E 153°06'  
2018-Jan-07 07:20S 27°13' E 153°06'0 0.0
2018-Jan-07 06:59S 27°13' E 153°06'2 4.1
2018-Jan-07 06:30S 27°11' E 153°06'2 4.5
2018-Jan-07 06:00S 27°10' E 153°08'2 4.0
2018-Jan-07 05:30S 27°08' E 153°09'2 4.0
2018-Jan-07 05:01S 27°06' E 153°09'1 2.3
2018-Jan-07 04:29S 27°05' E 153°09'0 0.0
2018-Jan-07 03:56S 27°05' E 153°09'0 0.0
2018-Jan-07 03:29S 27°05' E 153°09'0 0.0
2018-Jan-07 02:59S 27°05' E 153°09'1 2.6
2018-Jan-07 02:30S 27°06' E 153°10'3 5.5
2018-Jan-07 02:00S 27°05' E 153°13'1 1.9
2018-Jan-07 01:30S 27°06' E 153°12'4 4.3
2018-Jan-07 00:30S 27°08' E 153°08'2 4.9
2018-Jan-07 00:00S 27°10' E 153°07'3 5.4
2018-Jan-06 23:30S 27°12' E 153°06'0 0.8
2018-Jan-06 22:59S 27°13' E 153°06'  

Dump ship's entire track history